• Join FlightAware (Why Join?)
  • Login
  • US Flag 
03:15PM EDT


 

Airport Tracker/Info


-or-


 

Live Flight TrackerFlight Track Log ✈ SWA534 ✈ 26-Oct-2013 ✈ KLAS - KABQ

Flight Track Log - Related Links

Times and Time Zones

All times are in EDT time to prevent confusion due to time zone crossing. See the SWA534 flight status page for this flight to view local times or setup timezone preferences in your user account.

Time Position Orientation Groundspeed Altitude Reporting Facility
EDT Latitude Longitude Course Direction KTS MPH feet Rate Location/Type
06:58PM 36.1247 -115.1336 33° Northeast 201 231 3,900  Level Los Angeles Center
06:59PM 36.1333 -115.0769 79° East 224 258 5,600 2,040 Climbing Los Angeles Center
06:59PM 36.1353 -115.0528 84° East 235 270 6,200 3,060 Climbing Los Angeles Center
07:00PM 36.1419 -114.9889 83° East 254 292 8,800 3,780 Climbing Los Angeles Center
07:00PM 36.1450 -114.9589 83° East 270 311 10,100 2,880 Climbing Los Angeles Center
07:01PM 36.1514 -114.8875 84° East 292 336 11,800 2,880 Climbing Los Angeles Center
07:02PM 36.1225 -114.7769 108° East 339 390 15,300 3,480 Climbing Los Angeles Center
07:03PM 36.0681 -114.6428 117° Southeast 361 415 19,000 3,180 Climbing Los Angeles Center
07:04PM 36.0197 -114.5233 117° Southeast 382 440 21,900 2,580 Climbing Los Angeles Center
07:05PM 35.9931 -114.3872 104° East 404 465 24,300 2,220 Climbing Los Angeles Center
07:06PM 35.9728 -114.2417 100° East 426 490 26,500 1,980 Climbing Los Angeles Center
07:07PM 35.9514 -114.0900 100° East 442 509 28,500 1,740 Climbing Los Angeles Center
07:08PM 35.9267 -113.9322 101° East 461 531 30,200 1,500 Climbing Los Angeles Center
07:09PM 35.9031 -113.7683 100° East 477 549 31,600 1,500 Climbing Los Angeles Center
07:10PM 35.8697 -113.5653 101° East 499 574 33,700 1,680 Climbing Los Angeles Center
07:11PM 35.8369 -113.3561 101° East 507 583 35,500 1,740 Climbing Los Angeles Center
07:12PM 35.8097 -113.1844 101° East 510 587 37,300 1,620 Climbing Los Angeles Center
07:13PM 35.7817 -113.0153 102° East 505 581 38,900 780 Climbing Los Angeles Center
07:14PM 35.7544 -112.8472 101° East 501 577 39,000  Climbing Los Angeles Center
07:15PM 35.7281 -112.6831 101° East 490 564 39,000  Level Los Angeles Center
07:16PM 35.7014 -112.5181 101° East 490 564 39,000  Level Los Angeles Center
07:17PM 35.6722 -112.3547 102° East 488 562 39,000  Level Los Angeles Center
07:19PM 35.6436 -112.1894 102° East 494 568 39,000  Level Los Angeles Center
07:19PM 35.6203 -112.0594 102° East 490 564 39,000  Level Albuquerque Center
07:20PM 35.5925 -111.8956 102° East 492 566 39,000  Level Albuquerque Center
07:21PM 35.5872 -111.7294 92° East 489 563 39,000  Level Albuquerque Center
07:22PM 35.5831 -111.5636 92° East 488 562 39,000  Level Albuquerque Center
07:23PM 35.5778 -111.3864 92° East 491 565 39,000  Level Albuquerque Center
07:24PM 35.5703 -111.1986 93° East 492 566 39,000  Level Albuquerque Center
07:25PM 35.5664 -111.0378 92° East 492 566 39,000  Level Albuquerque Center
07:26PM 35.5603 -110.8781 93° East 490 564 39,000  Level Albuquerque Center
07:27PM 35.5533 -110.6903 93° East 493 567 39,000  Level Albuquerque Center
07:28PM 35.5478 -110.5303 92° East 492 566 39,000  Level Albuquerque Center
07:29PM 35.5403 -110.3450 93° East 490 564 39,000  Level Albuquerque Center
07:30PM 35.5350 -110.1867 92° East 486 559 39,000  Level Albuquerque Center
07:31PM 35.5286 -110.0278 93° East 487 560 39,000  Level Albuquerque Center
07:32PM 35.5211 -109.8433 93° East 486 559 39,000  Level Albuquerque Center
07:33PM 35.5142 -109.6867 93° East 484 557 39,000  Level Albuquerque Center
07:34PM 35.5067 -109.5042 93° East 482 555 39,000  Level Albuquerque Center
07:36PM 35.4992 -109.3469 93° East 483 556 39,000  Level Albuquerque Center
07:37PM 35.4919 -109.1914 93° East 481 554 39,000  Level Albuquerque Center
07:38PM 35.4836 -109.0103 93° East 480 552 39,000 -480 Level Albuquerque Center
07:39PM 35.4764 -108.8569 93° East 477 549 38,100 -1,860 Descending Albuquerque Center
07:40PM 35.4814 -108.6789 88° East 471 542 35,300 -2,580 Descending Albuquerque Center
07:41PM 35.4842 -108.5231 89° East 478 550 32,900 -2,160 Descending Albuquerque Center
07:42PM 35.4886 -108.3683 88° East 477 549 30,900 -2,220 Descending Albuquerque Center
07:43PM 35.4803 -108.1953 93° East 464 534 28,500 -2,220 Descending Albuquerque Center
07:44PM 35.4692 -108.0522 95° East 449 517 26,500 -2,160 Descending Albuquerque Center
07:45PM 35.4583 -107.8881 95° East 437 503 24,200 -2,100 Descending Albuquerque Center
07:46PM 35.4492 -107.7531 95° East 424 488 22,300 -1,860 Descending Albuquerque Center
07:47PM 35.4414 -107.6239 94° East 407 468 20,500 -1,920 Descending Albuquerque Center
07:47PM 35.4325 -107.5353 97° East 387 445 19,200 -2,100 Descending Albuquerque Center
07:48PM 35.4317 -107.4814 91° East 385 443 18,400 -1,440 Descending Albuquerque Center
07:49PM 35.4242 -107.3839 95° East 352 405 17,500 -1,200 Descending Albuquerque Center
07:49PM 35.4233 -107.3672 94° East 363 418 17,200 -1,680 Descending Albuquerque Center
07:50PM 35.3817 -107.2828 121° Southeast 332 382 15,800 -1,680 Descending Albuquerque Center
07:50PM 35.3786 -107.2728 111° Southeast 347 399 15,500 -1,200 Descending Albuquerque Center
07:51PM 35.3342 -107.1906 124° Southeast 323 372 14,600 -1,140 Descending Albuquerque Center
07:51PM 35.3267 -107.1758 122° Southeast 327 376 14,400 -1,620 Descending Albuquerque Center
07:52PM 35.2900 -107.1056 123° Southeast 292 336 13,000 -1,620 Descending Albuquerque Center
07:52PM 35.2853 -107.0953 119° Southeast 296 341 12,800 -1,800 Descending Albuquerque Center
07:53PM 35.2281 -107.0303 137° Southeast 297 342 11,200 -1,680 Descending Albuquerque Center
07:53PM 35.2239 -107.0253 136° Southeast 302 348 11,100 -1,140 Descending Albuquerque Center
07:54PM 35.1681 -106.9653 139° Southeast 289 333 10,100 -1,140 Descending Albuquerque Center
07:54PM 35.1653 -106.9603 124° Southeast 290 334 10,000 -1,140 Descending Albuquerque Center
07:55PM 35.1164 -106.9006 135° Southeast 266 306 9,000 -1,020 Descending Albuquerque Center
07:55PM 35.1122 -106.8953 134° Southeast 274 315 9,000 -840 Level Albuquerque Center
07:56PM 35.0806 -106.8292 120° Southeast 242 278 8,200 -840 Descending Albuquerque Center
07:56PM 35.0767 -106.8175 112° Southeast 249 287 8,200 -720 Level Albuquerque Center
07:57PM 35.0517 -106.7614 119° Southeast 222 255 7,500 -840 Descending Albuquerque Center
07:57PM 35.0483 -106.7503 110° East 227 261 7,400 -900 Descending Albuquerque Center
07:58PM 35.0442 -106.6933 95° East 163 188 6,500 -900 Descending Albuquerque Center
07:58PM 35.0444 -106.6917 78° East 178 205 6,500 -900 Level Albuquerque Center
07:59PM 35.0431 -106.6494 92° East 146 168 5,700 -900 Descending Albuquerque Center
07:59PM 35.0439 -106.6389 84° East 159 183 5,600 -360 Descending Albuquerque Center
08:01PM 35.0402 -106.6092 90° East  Level Estimated
08:08PM 35.0402 -106.6092 90° East  Level Estimated